Time;durP1;ratioP1;P1;durP2;ratioP2;P2;SDS_P1;SDS_P2;PMS_P1;PMS_P2;Temp;Humidity;BMP_temperature;BMP_pressure;BME280_temperature;BME280_humidity;BME280_pressure;Samples;Min_cycle;Max_cycle;Signal;HPM_P1;HPM_P2
2022/11/24 00:01:24;;;;;;;;;;;15.90;82.90;;;;;;5039284;28;19917;-92
2022/11/24 00:03:53;;;;;;;;;;;15.90;83.00;;;;;;5038606;28;19913;-92
2022/11/24 00:06:19;;;;;;;;;;;15.90;83.20;;;;;;5037113;28;20297;-91
2022/11/24 00:08:45;;;;;;;;;;;15.90;83.20;;;;;;5037116;28;19944;-91
2022/11/24 00:11:16;;;;;;;;;;;15.90;83.20;;;;;;5040493;28;19948;-92
2022/11/24 00:13:42;;;;;;;;;;;15.90;83.20;;;;;;5043205;28;19919;-91
2022/11/24 00:16:08;;;;;;;;;;;15.90;83.30;;;;;;5043253;28;19908;-91
2022/11/24 00:18:34;;;;;;;;;;;15.90;83.50;;;;;;5042824;28;19909;-92
2022/11/24 00:20:59;;;;;;;;;;;15.90;83.50;;;;;;5043460;28;19909;-91
2022/11/24 00:23:25;;;;;;;;;;;15.90;83.60;;;;;;5043080;28;19908;-91
2022/11/24 00:25:51;;;;;;;;;;;15.80;83.70;;;;;;5043176;28;19912;-91
2022/11/24 00:28:16;;;;;;;;;;;15.80;83.70;;;;;;5043422;28;20197;-91
2022/11/24 00:30:42;;;;;;;;;;;15.80;83.80;;;;;;5058998;28;20275;-91
2022/11/24 00:33:07;;;;;;;;;;;15.80;83.90;;;;;;5042189;28;20320;-92
2022/11/24 00:35:33;;;;;;;;;;;15.80;84.00;;;;;;5042082;28;19917;-91
2022/11/24 00:37:58;;;;;;;;;;;15.80;84.00;;;;;;5042969;28;19916;-92
2022/11/24 00:40:24;;;;;;;;;;;15.80;84.10;;;;;;5042899;28;19920;-91
2022/11/24 00:42:51;;;;;;;;;;;15.80;84.20;;;;;;5043407;28;19916;-91
2022/11/24 00:45:16;;;;;;;;;;;15.80;84.20;;;;;;5042864;28;20446;-91
2022/11/24 00:47:42;;;;;;;;;;;15.70;84.20;;;;;;5043086;28;19913;-91
2022/11/24 00:50:08;;;;;;;;;;;15.70;84.30;;;;;;5043188;28;19913;-93
2022/11/24 00:52:33;;;;;;;;;;;15.70;84.30;;;;;;5043944;28;20270;-91
2022/11/24 00:55:01;;;;;;;;;;;15.70;85.00;;;;;;5042751;28;19974;-91
2022/11/24 00:57:27;;;;;;;;;;;15.70;84.60;;;;;;5043144;28;19912;-91
2022/11/24 00:59:52;;;;;;;;;;;15.70;84.60;;;;;;5043340;28;20120;-92
2022/11/24 01:02:18;;;;;;;;;;;15.70;84.70;;;;;;5043156;28;20376;-91
2022/11/24 01:04:50;;;;;;;;;;;15.70;84.80;;;;;;5042711;28;19913;-91
2022/11/24 01:07:15;;;;;;;;;;;15.70;84.90;;;;;;5042521;28;19942;-91
2022/11/24 01:09:42;;;;;;;;;;;15.70;84.90;;;;;;5042833;28;19909;-91
2022/11/24 01:12:07;;;;;;;;;;;15.70;85.00;;;;;;5042754;28;19912;-91
2022/11/24 01:14:33;;;;;;;;;;;15.60;85.00;;;;;;5059718;28;19909;-91
2022/11/24 01:16:59;;;;;;;;;;;15.60;85.10;;;;;;5042573;28;19995;-91
2022/11/24 01:19:24;;;;;;;;;;;15.60;85.20;;;;;;5041791;28;19910;-90
2022/11/24 01:21:50;;;;;;;;;;;15.60;85.30;;;;;;5042128;28;19908;-91
2022/11/24 01:24:46;;;;;;;;;;;15.60;85.30;;;;;;5059030;28;19924;-91
2022/11/24 01:27:11;;;;;;;;;;;15.60;85.30;;;;;;5041637;28;19909;-91
2022/11/24 01:29:37;;;;;;;;;;;15.60;85.40;;;;;;5041921;28;19916;-91
2022/11/24 01:32:02;;;;;;;;;;;15.60;85.50;;;;;;5041573;28;19916;-91
2022/11/24 01:34:28;;;;;;;;;;;15.60;85.50;;;;;;5041786;28;19909;-90
2022/11/24 01:36:54;;;;;;;;;;;15.60;85.60;;;;;;5042044;28;19916;-90
2022/11/24 01:39:19;;;;;;;;;;;15.60;85.60;;;;;;5041590;28;19919;-90
2022/11/24 01:41:45;;;;;;;;;;;15.60;85.70;;;;;;4953120;28;19909;-90
2022/11/24 01:44:33;;;;;;;;;;;15.50;85.70;;;;;;5039830;28;20471;-91
2022/11/24 01:47:04;;;;;;;;;;;15.50;85.70;;;;;;5057367;28;19991;-91
2022/11/24 01:49:42;;;;;;;;;;;15.50;85.80;;;;;;5057710;28;19908;-91
2022/11/24 01:52:18;;;;;;;;;;;15.50;85.80;;;;;;5074536;28;20078;-91
2022/11/24 01:54:47;;;;;;;;;;;15.50;85.80;;;;;;5040535;28;19909;-91
2022/11/24 01:57:19;;;;;;;;;;;15.50;85.90;;;;;;5041773;28;20147;-91
2022/11/24 01:59:45;;;;;;;;;;;15.50;85.90;;;;;;5041164;28;19909;-91
2022/11/24 02:02:11;;;;;;;;;;;15.50;86.00;;;;;;5059088;28;19919;-91
2022/11/24 02:04:37;;;;;;;;;;;15.50;86.00;;;;;;5041367;28;19912;-91
2022/11/24 02:07:10;;;;;;;;;;;15.50;86.10;;;;;;5042794;28;19909;-91
2022/11/24 02:09:44;;;;;;;;;;;15.40;86.00;;;;;;5041374;28;19908;-90
2022/11/24 02:12:10;;;;;;;;;;;15.40;86.20;;;;;;5041230;28;19909;-90
2022/11/24 02:14:36;;;;;;;;;;;15.50;86.30;;;;;;5041720;28;20265;-91
2022/11/24 02:17:02;;;;;;;;;;;15.40;86.30;;;;;;5059102;28;19944;-92
2022/11/24 02:19:34;;;;;;;;;;;15.50;86.40;;;;;;5042568;28;20185;-91
2022/11/24 02:22:01;;;;;;;;;;;15.40;86.40;;;;;;5041934;28;20183;-92
2022/11/24 02:24:34;;;;;;;;;;;15.40;86.40;;;;;;5041338;28;19923;-91
2022/11/24 02:26:59;;;;;;;;;;;15.40;86.40;;;;;;5041221;28;19909;-92
2022/11/24 02:29:25;;;;;;;;;;;15.40;86.40;;;;;;5041429;28;19908;-91
2022/11/24 02:31:53;;;;;;;;;;;15.40;86.40;;;;;;5041310;28;19909;-91
2022/11/24 02:34:19;;;;;;;;;;;15.40;86.50;;;;;;5042213;28;20261;-93
2022/11/24 02:36:45;;;;;;;;;;;15.40;86.50;;;;;;5040850;28;19956;-91
2022/11/24 02:39:13;;;;;;;;;;;15.40;86.60;;;;;;5041351;28;19925;-91
2022/11/24 02:41:53;;;;;;;;;;;15.40;86.60;;;;;;5041226;28;19909;-90
2022/11/24 02:44:20;;;;;;;;;;;15.40;86.50;;;;;;5041361;28;20011;-91
2022/11/24 02:46:45;;;;;;;;;;;15.40;86.50;;;;;;5041664;28;19954;-91
2022/11/24 02:49:11;;;;;;;;;;;15.40;86.50;;;;;;5058267;28;19909;-91
2022/11/24 02:52:05;;;;;;;;;;;15.40;86.60;;;;;;5041463;28;19941;-91
2022/11/24 02:54:30;;;;;;;;;;;15.40;86.60;;;;;;5040352;28;19952;-91
2022/11/24 02:56:56;;;;;;;;;;;15.30;86.50;;;;;;5041017;28;19909;-91
2022/11/24 02:59:22;;;;;;;;;;;15.40;86.70;;;;;;5040899;28;19909;-91
2022/11/24 03:01:53;;;;;;;;;;;15.40;86.70;;;;;;5041163;28;19920;-91
2022/11/24 03:04:18;;;;;;;;;;;15.30;86.70;;;;;;5040269;28;20321;-91
2022/11/24 03:06:44;;;;;;;;;;;15.40;86.70;;;;;;5040645;28;19952;-92
2022/11/24 03:09:10;;;;;;;;;;;15.30;86.70;;;;;;5040008;28;20021;-91
2022/11/24 03:11:36;;;;;;;;;;;15.30;86.70;;;;;;5058363;28;19931;-91
2022/11/24 03:14:01;;;;;;;;;;;15.30;86.80;;;;;;5040788;28;19909;-91
2022/11/24 03:16:27;;;;;;;;;;;15.30;86.90;;;;;;5040134;28;20436;-91
2022/11/24 03:18:54;;;;;;;;;;;15.30;86.80;;;;;;5040290;28;19923;-91
2022/11/24 03:21:19;;;;;;;;;;;15.30;86.90;;;;;;5040347;28;19935;-91
2022/11/24 03:23:45;;;;;;;;;;;15.30;86.90;;;;;;5040977;28;19908;-91
2022/11/24 03:26:12;;;;;;;;;;;15.30;86.90;;;;;;5040077;28;19966;-91
2022/11/24 03:29:00;;;;;;;;;;;15.30;87.00;;;;;;5040790;28;19909;-91
2022/11/24 03:31:25;;;;;;;;;;;15.30;87.00;;;;;;5040093;28;19999;-91
2022/11/24 03:33:51;;;;;;;;;;;15.30;87.10;;;;;;5040719;28;19959;-91
2022/11/24 03:36:36;;;;;;;;;;;15.30;87.10;;;;;;5040203;28;19972;-91
2022/11/24 03:39:02;;;;;;;;;;;15.30;87.10;;;;;;5057912;28;19909;-91
2022/11/24 03:41:27;;;;;;;;;;;15.30;87.10;;;;;;5040587;28;19920;-91
2022/11/24 03:43:53;;;;;;;;;;;15.30;87.80;;;;;;5040380;28;19909;-91
2022/11/24 03:46:28;;;;;;;;;;;15.30;87.20;;;;;;5040005;28;19909;-91
2022/11/24 03:48:53;;;;;;;;;;;15.30;87.30;;;;;;5057597;28;20282;-91
2022/11/24 03:51:19;;;;;;;;;;;15.20;87.30;;;;;;5040228;28;19909;-91
2022/11/24 03:53:44;;;;;;;;;;;15.20;87.40;;;;;;5041556;28;19916;-91
2022/11/24 03:56:19;;;;;;;;;;;15.20;87.40;;;;;;5040631;28;19909;-91
2022/11/24 03:58:45;;;;;;;;;;;15.20;87.50;;;;;;5040104;28;19909;-91
2022/11/24 04:01:10;;;;;;;;;;;15.10;87.50;;;;;;5039578;28;19931;-91
2022/11/24 04:03:36;;;;;;;;;;;15.20;87.70;;;;;;5040112;28;19916;-91
2022/11/24 04:06:24;;;;;;;;;;;15.10;88.30;;;;;;5041181;28;19916;-91
2022/11/24 04:08:49;;;;;;;;;;;15.10;87.80;;;;;;5043534;28;19951;-91
2022/11/24 04:13:59;;;;;;;;;;;15.00;88.00;;;;;;5060020;28;19920;-91
2022/11/24 04:16:34;;;;;;;;;;;15.00;88.10;;;;;;5043218;28;19908;-91
2022/11/24 04:18:59;;;;;;;;;;;15.10;88.70;;;;;;5043237;28;19909;-91
2022/11/24 04:21:25;;;;;;;;;;;15.90;84.60;;;;;;5043793;28;19919;-91
2022/11/24 04:23:50;;;;;;;;;;;16.60;79.30;;;;;;5043489;28;20020;-91
2022/11/24 04:26:16;;;;;;;;;;;16.90;76.70;;;;;;5043388;28;19999;-90
2022/11/24 04:29:11;;;;;;;;;;;17.10;75.30;;;;;;5043351;28;19999;-91
2022/11/24 04:31:36;;;;;;;;;;;17.30;73.90;;;;;;5060937;28;19960;-91
2022/11/24 04:34:02;;;;;;;;;;;17.50;72.50;;;;;;5042761;28;19937;-91
2022/11/24 04:36:28;;;;;;;;;;;17.70;71.10;;;;;;5043851;28;19956;-91
2022/11/24 04:38:54;;;;;;;;;;;17.80;70.20;;;;;;5042741;28;19909;-92
2022/11/24 04:41:19;;;;;;;;;;;17.90;69.60;;;;;;5059842;28;19951;-91
2022/11/24 04:43:47;;;;;;;;;;;18.00;69.20;;;;;;5060138;28;19944;-91
2022/11/24 04:46:28;;;;;;;;;;;18.00;68.80;;;;;;5043742;28;20011;-91
2022/11/24 04:48:54;;;;;;;;;;;18.20;68.20;;;;;;5042879;28;19944;-91
2022/11/24 04:51:19;;;;;;;;;;;18.30;67.40;;;;;;5041721;28;20293;-91
2022/11/24 04:53:46;;;;;;;;;;;18.30;66.80;;;;;;5042488;28;19919;-91
2022/11/24 04:56:14;;;;;;;;;;;18.40;66.40;;;;;;5042730;28;20395;-91
2022/11/24 04:58:39;;;;;;;;;;;18.40;66.20;;;;;;5042373;28;20146;-91
2022/11/24 05:01:05;;;;;;;;;;;18.40;66.30;;;;;;5041617;28;19920;-92
2022/11/24 05:03:31;;;;;;;;;;;18.30;66.50;;;;;;5041302;28;19919;-91
2022/11/24 05:06:04;;;;;;;;;;;18.30;66.80;;;;;;5042025;28;20170;-91
2022/11/24 05:08:29;;;;;;;;;;;18.20;67.00;;;;;;5041806;28;19944;-92
2022/11/24 05:10:55;;;;;;;;;;;18.10;67.40;;;;;;5042253;28;20005;-91
2022/11/24 05:13:21;;;;;;;;;;;18.00;67.80;;;;;;5041778;28;19908;-91
2022/11/24 05:15:46;;;;;;;;;;;18.00;68.30;;;;;;5041452;28;19909;-91
2022/11/24 05:18:16;;;;;;;;;;;17.90;68.90;;;;;;5041313;28;19918;-91
2022/11/24 05:20:45;;;;;;;;;;;17.70;69.40;;;;;;5041875;28;19916;-92
2022/11/24 05:23:10;;;;;;;;;;;17.70;70.10;;;;;;5042251;28;19920;-91
2022/11/24 05:25:37;;;;;;;;;;;17.60;70.70;;;;;;5040464;28;19913;-91
2022/11/24 05:28:04;;;;;;;;;;;17.50;71.50;;;;;;5058287;28;20007;-91
2022/11/24 05:30:30;;;;;;;;;;;17.40;72.10;;;;;;5041636;28;19944;-91
2022/11/24 05:32:56;;;;;;;;;;;17.30;72.60;;;;;;5040115;28;19952;-91
2022/11/24 05:35:24;;;;;;;;;;;17.20;73.20;;;;;;5040919;28;19920;-91
2022/11/24 05:37:49;;;;;;;;;;;17.10;73.80;;;;;;5040841;28;19917;-91
2022/11/24 05:40:15;;;;;;;;;;;17.00;74.40;;;;;;5040429;28;19933;-91
2022/11/24 05:42:41;;;;;;;;;;;16.90;75.00;;;;;;5039902;28;19955;-91
2022/11/24 05:45:15;;;;;;;;;;;16.90;75.60;;;;;;5040683;28;19912;-91
2022/11/24 05:47:40;;;;;;;;;;;16.80;76.00;;;;;;5041019;28;19912;-91
2022/11/24 05:50:07;;;;;;;;;;;16.70;76.50;;;;;;5041308;28;19942;-91
2022/11/24 05:52:32;;;;;;;;;;;16.70;77.10;;;;;;5040569;28;20020;-91
2022/11/24 05:55:07;;;;;;;;;;;16.60;77.50;;;;;;5040509;28;20003;-91
2022/11/24 05:57:33;;;;;;;;;;;16.60;78.10;;;;;;5038876;28;20229;-91
2022/11/24 05:59:59;;;;;;;;;;;16.50;78.50;;;;;;5039509;28;19959;-91
2022/11/24 06:02:24;;;;;;;;;;;16.40;78.90;;;;;;5040740;28;19908;-91
2022/11/24 06:04:50;;;;;;;;;;;16.40;79.20;;;;;;5039276;28;20015;-91
2022/11/24 06:07:16;;;;;;;;;;;16.40;79.60;;;;;;5037802;28;19963;-91
2022/11/24 06:09:42;;;;;;;;;;;16.40;79.70;;;;;;5038024;28;20054;-91
2022/11/24 06:12:08;;;;;;;;;;;16.40;79.50;;;;;;5038271;28;20015;-91
2022/11/24 06:14:34;;;;;;;;;;;16.50;79.20;;;;;;5037941;28;20007;-91
2022/11/24 06:17:00;;;;;;;;;;;16.60;78.40;;;;;;5037884;28;20329;-91
2022/11/24 06:19:25;;;;;;;;;;;16.60;77.80;;;;;;5036884;28;19916;-91
2022/11/24 06:21:53;;;;;;;;;;;16.70;77.10;;;;;;5056010;28;19978;-91
2022/11/24 06:24:19;;;;;;;;;;;16.80;76.40;;;;;;5055563;28;19913;-91
2022/11/24 06:26:44;;;;;;;;;;;17.00;75.60;;;;;;5039132;28;20387;-91
2022/11/24 06:29:10;;;;;;;;;;;17.10;74.80;;;;;;5054887;28;20274;-91
2022/11/24 06:31:40;;;;;;;;;;;17.20;74.00;;;;;;5037441;28;20003;-91
2022/11/24 06:34:06;;;;;;;;;;;17.30;73.40;;;;;;5037696;28;20199;-91
2022/11/24 06:36:32;;;;;;;;;;;17.40;72.70;;;;;;5053186;28;19927;-92
2022/11/24 06:38:59;;;;;;;;;;;17.50;72.10;;;;;;5037806;28;19909;-91
2022/11/24 06:41:25;;;;;;;;;;;17.50;71.80;;;;;;5038244;28;20150;-91
2022/11/24 06:43:50;;;;;;;;;;;17.50;72.40;;;;;;5038540;28;20012;-90
2022/11/24 06:46:16;;;;;;;;;;;17.50;73.20;;;;;;5037764;28;19951;-91
2022/11/24 06:48:42;;;;;;;;;;;17.40;73.60;;;;;;5037145;28;20011;-91
2022/11/24 06:51:09;;;;;;;;;;;17.40;73.50;;;;;;5036655;28;19912;-91
2022/11/24 06:53:38;;;;;;;;;;;17.40;73.50;;;;;;5036365;28;19909;-91
2022/11/24 06:56:05;;;;;;;;;;;17.40;73.70;;;;;;5037277;28;19959;-91
2022/11/24 06:58:32;;;;;;;;;;;17.30;73.90;;;;;;5036496;28;19909;-91
2022/11/24 07:00:58;;;;;;;;;;;17.20;74.00;;;;;;5036969;28;20401;-91
2022/11/24 07:03:23;;;;;;;;;;;17.20;74.30;;;;;;5054877;28;19909;-91
2022/11/24 07:05:54;;;;;;;;;;;17.10;75.00;;;;;;5053915;28;19913;-91
2022/11/24 07:08:21;;;;;;;;;;;17.10;75.80;;;;;;5037850;28;19917;-91
2022/11/24 07:10:46;;;;;;;;;;;17.00;76.50;;;;;;5038045;28;19999;-91
2022/11/24 07:13:12;;;;;;;;;;;17.00;77.40;;;;;;5038807;28;19952;-91
2022/11/24 07:15:37;;;;;;;;;;;16.90;78.20;;;;;;5055630;28;19913;-91
2022/11/24 07:18:09;;;;;;;;;;;16.80;79.10;;;;;;5038055;28;20003;-91
2022/11/24 07:20:34;;;;;;;;;;;16.80;79.80;;;;;;5037545;28;19974;-91
2022/11/24 07:23:00;;;;;;;;;;;16.70;80.40;;;;;;5036947;28;19909;-91
2022/11/24 07:25:25;;;;;;;;;;;16.70;81.10;;;;;;5038119;28;19913;-91
2022/11/24 07:27:58;;;;;;;;;;;16.60;81.60;;;;;;5037112;28;20309;-91
2022/11/24 07:30:24;;;;;;;;;;;16.60;82.00;;;;;;5038566;28;19909;-91
2022/11/24 07:32:49;;;;;;;;;;;16.60;82.20;;;;;;5037443;28;19978;-91
2022/11/24 07:35:15;;;;;;;;;;;16.60;82.50;;;;;;5036826;28;19921;-91
2022/11/24 07:37:40;;;;;;;;;;;16.60;82.90;;;;;;5038231;28;19921;-91
2022/11/24 07:40:07;;;;;;;;;;;16.60;83.10;;;;;;5040334;28;19913;-91
2022/11/24 07:42:32;;;;;;;;;;;16.50;83.30;;;;;;5042177;28;19920;-91
2022/11/24 07:44:58;;;;;;;;;;;16.60;83.50;;;;;;5041161;28;19917;-91
2022/11/24 07:47:23;;;;;;;;;;;16.60;84.30;;;;;;5041122;28;20402;-92
2022/11/24 07:49:49;;;;;;;;;;;16.60;83.60;;;;;;5040948;28;19909;-91
2022/11/24 07:52:14;;;;;;;;;;;16.60;83.40;;;;;;5041932;28;19913;-92
2022/11/24 07:54:40;;;;;;;;;;;16.70;83.50;;;;;;5040012;28;19913;-91
2022/11/24 07:57:05;;;;;;;;;;;16.70;83.10;;;;;;5041893;28;19920;-91
2022/11/24 07:59:31;;;;;;;;;;;16.70;82.80;;;;;;5041928;28;20420;-91
2022/11/24 08:01:57;;;;;;;;;;;16.80;82.50;;;;;;5040127;28;19971;-91
2022/11/24 08:04:22;;;;;;;;;;;16.80;82.20;;;;;;5039146;28;20062;-91
2022/11/24 08:06:48;;;;;;;;;;;16.90;81.90;;;;;;5040064;28;19912;-91
2022/11/24 08:09:13;;;;;;;;;;;16.90;81.50;;;;;;5039777;28;19974;-91
2022/11/24 08:11:41;;;;;;;;;;;16.90;81.60;;;;;;5039901;28;19908;-91
2022/11/24 08:14:07;;;;;;;;;;;16.90;81.40;;;;;;5040625;28;20241;-91
2022/11/24 08:16:32;;;;;;;;;;;16.90;81.40;;;;;;5057089;28;19917;-90
2022/11/24 08:18:58;;;;;;;;;;;17.00;81.40;;;;;;5056609;28;19995;-90
2022/11/24 08:21:25;;;;;;;;;;;17.00;81.10;;;;;;5039935;28;19909;-90
2022/11/24 08:23:54;;;;;;;;;;;17.00;81.60;;;;;;5039623;28;19996;-91
2022/11/24 08:26:20;;;;;;;;;;;17.00;80.90;;;;;;5039886;28;19909;-90
2022/11/24 08:28:46;;;;;;;;;;;17.00;80.90;;;;;;5039065;28;19974;-91
2022/11/24 08:31:13;;;;;;;;;;;17.00;80.80;;;;;;5038317;28;19986;-90
2022/11/24 08:33:39;;;;;;;;;;;17.00;81.00;;;;;;5040131;28;19908;-90
2022/11/24 08:36:06;;;;;;;;;;;17.00;81.10;;;;;;5039288;28;20043;-91
2022/11/24 08:38:31;;;;;;;;;;;17.00;81.10;;;;;;5038847;28;20174;-91
2022/11/24 08:41:04;;;;;;;;;;;17.00;81.10;;;;;;5056615;28;19909;-90
2022/11/24 08:43:29;;;;;;;;;;;17.00;81.00;;;;;;5057152;28;20493;-91
2022/11/24 08:45:58;;;;;;;;;;;16.90;81.20;;;;;;5039155;28;19966;-91
2022/11/24 08:48:23;;;;;;;;;;;16.90;81.40;;;;;;5039071;28;19959;-91
2022/11/24 08:50:49;;;;;;;;;;;16.90;81.60;;;;;;5035847;28;19944;-91
2022/11/24 08:53:14;;;;;;;;;;;16.90;81.80;;;;;;5016640;28;20370;-91
2022/11/24 08:55:41;;;;;;;;;;;16.80;81.90;;;;;;5037961;28;19909;-91
2022/11/24 08:58:06;;;;;;;;;;;16.80;82.00;;;;;;5036488;28;19995;-90
2022/11/24 09:00:32;;;;;;;;;;;16.80;82.00;;;;;;5036481;28;20011;-91
2022/11/24 09:02:58;;;;;;;;;;;16.80;82.20;;;;;;5037737;28;20007;-91
2022/11/24 09:05:29;;;;;;;;;;;16.70;82.40;;;;;;5038061;28;19959;-90
2022/11/24 09:07:55;;;;;;;;;;;16.70;82.80;;;;;;5038297;28;20277;-91
2022/11/24 09:10:20;;;;;;;;;;;16.70;83.00;;;;;;5038283;28;20442;-91
2022/11/24 09:12:46;;;;;;;;;;;16.60;83.20;;;;;;5038774;28;20407;-91
2022/11/24 09:15:15;;;;;;;;;;;16.60;83.60;;;;;;5057207;28;19923;-90
2022/11/24 09:17:41;;;;;;;;;;;16.60;83.90;;;;;;5038663;28;19970;-91
2022/11/24 09:20:06;;;;;;;;;;;16.50;84.10;;;;;;5039066;28;19909;-91
2022/11/24 09:22:32;;;;;;;;;;;16.50;84.30;;;;;;5062992;28;20270;-91
2022/11/24 09:24:59;;;;;;;;;;;16.50;84.60;;;;;;5038516;28;20042;-90
2022/11/24 09:27:24;;;;;;;;;;;16.40;84.80;;;;;;5037997;28;19909;-91
2022/11/24 09:29:51;;;;;;;;;;;16.40;85.00;;;;;;5037037;28;20016;-91
2022/11/24 09:32:16;;;;;;;;;;;16.40;85.20;;;;;;5036323;28;19924;-91
2022/11/24 09:34:42;;;;;;;;;;;16.40;85.30;;;;;;5036414;28;19909;-91
2022/11/24 09:37:08;;;;;;;;;;;16.40;85.30;;;;;;5035620;28;19924;-91
2022/11/24 09:39:33;;;;;;;;;;;16.30;85.30;;;;;;5068398;28;19963;-91
2022/11/24 09:42:01;;;;;;;;;;;16.40;85.40;;;;;;5051880;28;20012;-91
2022/11/24 09:44:27;;;;;;;;;;;16.40;85.20;;;;;;5052944;28;19917;-91
2022/11/24 09:47:00;;;;;;;;;;;16.50;85.00;;;;;;5037170;28;19916;-90
2022/11/24 09:49:36;;;;;;;;;;;16.60;84.60;;;;;;5033596;28;19909;-90
2022/11/24 09:52:04;;;;;;;;;;;16.70;83.90;;;;;;5033029;28;19943;-90
2022/11/24 09:54:31;;;;;;;;;;;16.90;82.90;;;;;;5034114;28;19909;-90
2022/11/24 09:56:59;;;;;;;;;;;17.10;81.70;;;;;;5032461;28;19915;-90
2022/11/24 09:59:26;;;;;;;;;;;17.20;81.00;;;;;;5031665;28;20057;-90
2022/11/24 10:01:52;;;;;;;;;;;17.20;80.40;;;;;;5030626;28;20297;-90
2022/11/24 10:04:19;;;;;;;;;;;17.30;79.80;;;;;;5031688;28;20266;-90
2022/11/24 10:06:59;;;;;;;;;;;17.40;79.30;;;;;;5048712;28;19967;-90
2022/11/24 10:09:37;;;;;;;;;;;17.50;78.80;;;;;;5031814;28;20003;-90
2022/11/24 10:12:21;;;;;;;;;;;17.50;78.20;;;;;;5029551;28;20278;-90
2022/11/24 10:15:05;;;;;;;;;;;17.60;77.70;;;;;;5049035;28;19955;-90
2022/11/24 10:17:37;;;;;;;;;;;17.60;77.40;;;;;;5028925;28;19916;-90
2022/11/24 10:20:13;;;;;;;;;;;17.60;77.40;;;;;;5047192;28;19920;-90
2022/11/24 10:22:45;;;;;;;;;;;17.60;77.50;;;;;;5031213;28;20194;-90
2022/11/24 10:25:19;;;;;;;;;;;17.60;77.70;;;;;;5030059;28;19917;-90
2022/11/24 10:27:47;;;;;;;;;;;17.50;77.80;;;;;;5049292;28;19916;-90
2022/11/24 10:30:16;;;;;;;;;;;17.50;78.20;;;;;;5031888;28;19908;-90
2022/11/24 10:32:48;;;;;;;;;;;17.40;78.50;;;;;;5049454;28;19912;-90
2022/11/24 10:35:22;;;;;;;;;;;17.40;78.90;;;;;;5032519;28;19967;-90
2022/11/24 10:38:02;;;;;;;;;;;17.30;79.20;;;;;;5031401;28;19916;-90
2022/11/24 10:40:32;;;;;;;;;;;17.30;79.60;;;;;;5030037;28;19908;-90
2022/11/24 10:42:58;;;;;;;;;;;17.20;80.00;;;;;;5030670;28;19994;-90
2022/11/24 10:45:25;;;;;;;;;;;17.20;80.40;;;;;;5049517;28;19977;-90
2022/11/24 10:47:51;;;;;;;;;;;17.10;80.70;;;;;;5029695;28;20187;-90
2022/11/24 10:50:19;;;;;;;;;;;17.10;81.00;;;;;;5062727;28;20266;-90
2022/11/24 10:52:55;;;;;;;;;;;17.20;81.00;;;;;;5046595;28;19909;-90
2022/11/24 10:55:21;;;;;;;;;;;17.20;80.80;;;;;;5028878;28;19909;-90
2022/11/24 10:57:46;;;;;;;;;;;17.30;80.50;;;;;;5028456;28;20194;-90
2022/11/24 11:00:18;;;;;;;;;;;17.40;80.20;;;;;;5027520;28;20186;-89
2022/11/24 11:02:44;;;;;;;;;;;17.40;79.60;;;;;;5027493;28;19920;-90
2022/11/24 11:05:25;;;;;;;;;;;17.50;79.50;;;;;;5029108;28;19917;-90
2022/11/24 11:08:10;;;;;;;;;;;17.40;79.40;;;;;;5027889;28;20060;-89
2022/11/24 11:10:35;;;;;;;;;;;17.30;79.70;;;;;;5030758;28;20095;-89
2022/11/24 11:13:20;;;;;;;;;;;17.30;80.00;;;;;;5031176;28;19970;-90
2022/11/24 11:15:45;;;;;;;;;;;17.30;80.20;;;;;;5033963;28;19909;-90
2022/11/24 11:18:14;;;;;;;;;;;17.30;79.90;;;;;;5034367;28;19919;-89
2022/11/24 11:20:47;;;;;;;;;;;17.40;79.70;;;;;;5033278;28;19908;-89
2022/11/24 11:23:33;;;;;;;;;;;17.40;79.30;;;;;;5032212;28;20103;-90
2022/11/24 11:26:21;;;;;;;;;;;17.40;79.30;;;;;;5036449;28;20088;-90
2022/11/24 11:28:56;;;;;;;;;;;17.40;79.40;;;;;;5033200;28;20185;-90
2022/11/24 11:31:22;;;;;;;;;;;17.40;79.10;;;;;;5034088;28;19939;-90
2022/11/24 11:33:55;;;;;;;;;;;17.50;78.70;;;;;;5031799;28;19913;-90
2022/11/24 11:36:22;;;;;;;;;;;17.50;78.70;;;;;;5033069;28;19909;-90
2022/11/24 11:38:47;;;;;;;;;;;17.40;78.80;;;;;;5031858;28;20215;-90
2022/11/24 11:41:18;;;;;;;;;;;17.40;79.10;;;;;;5049947;28;20280;-89
2022/11/24 11:43:44;;;;;;;;;;;17.40;79.30;;;;;;5032568;28;19919;-89
2022/11/24 11:46:16;;;;;;;;;;;17.30;79.50;;;;;;5064834;28;20011;-90
2022/11/24 11:48:46;;;;;;;;;;;17.30;79.90;;;;;;5018832;28;19970;-89
2022/11/24 11:51:30;;;;;;;;;;;17.30;80.10;;;;;;5032358;28;20165;-90
2022/11/24 11:54:17;;;;;;;;;;;17.20;80.10;;;;;;5031100;28;19909;-90
2022/11/24 11:56:43;;;;;;;;;;;17.20;80.10;;;;;;5051669;28;19908;-90
2022/11/24 11:59:29;;;;;;;;;;;17.30;79.90;;;;;;5050034;28;20314;-90
2022/11/24 12:02:01;;;;;;;;;;;17.30;79.70;;;;;;5031493;28;19908;-90
2022/11/24 12:04:45;;;;;;;;;;;17.40;79.40;;;;;;5031514;28;20023;-90
2022/11/24 12:07:17;;;;;;;;;;;17.40;79.10;;;;;;5031947;28;20441;-90
2022/11/24 12:10:08;;;;;;;;;;;17.50;78.70;;;;;;5028757;28;19970;-90
2022/11/24 12:12:57;;;;;;;;;;;17.60;78.10;;;;;;5030450;28;19916;-90
2022/11/24 12:15:33;;;;;;;;;;;17.80;77.10;;;;;;5032098;28;19919;-90
2022/11/24 12:18:17;;;;;;;;;;;18.00;75.80;;;;;;5048707;28;19920;-90
2022/11/24 12:20:42;;;;;;;;;;;18.10;74.80;;;;;;5033231;28;19916;-90
2022/11/24 12:23:21;;;;;;;;;;;18.20;73.90;;;;;;5032404;28;20241;-90
2022/11/24 12:25:55;;;;;;;;;;;18.40;73.20;;;;;;5047394;28;20246;-90
2022/11/24 12:28:39;;;;;;;;;;;18.40;72.80;;;;;;5049320;28;19908;-90
2022/11/24 12:31:17;;;;;;;;;;;18.40;72.40;;;;;;5047217;28;19920;-90
2022/11/24 12:33:50;;;;;;;;;;;18.40;72.20;;;;;;5025676;28;20338;-89
2022/11/24 12:36:25;;;;;;;;;;;18.40;72.30;;;;;;5060220;28;20355;-91
2022/11/24 12:38:51;;;;;;;;;;;18.40;72.30;;;;;;5027542;28;20278;-90
2022/11/24 12:41:23;;;;;;;;;;;18.30;72.70;;;;;;5030121;28;19916;-89
2022/11/24 12:43:51;;;;;;;;;;;18.30;73.00;;;;;;5030333;28;19913;-89
2022/11/24 12:46:27;;;;;;;;;;;18.20;73.50;;;;;;5046663;28;20080;-90
2022/11/24 12:49:03;;;;;;;;;;;18.10;73.90;;;;;;5031359;28;19920;-90
2022/11/24 12:51:34;;;;;;;;;;;18.00;75.00;;;;;;5033848;28;19921;-89
2022/11/24 12:54:01;;;;;;;;;;;18.00;74.90;;;;;;5032415;28;19921;-90
2022/11/24 12:56:34;;;;;;;;;;;17.90;75.40;;;;;;5032864;28;19916;-90
2022/11/24 12:59:18;;;;;;;;;;;17.90;75.80;;;;;;5032519;28;19913;-90
2022/11/24 13:01:49;;;;;;;;;;;17.80;76.30;;;;;;5034060;28;19916;-90
2022/11/24 13:04:36;;;;;;;;;;;17.70;76.80;;;;;;5031976;28;19913;-90
2022/11/24 13:07:10;;;;;;;;;;;17.60;77.40;;;;;;5066218;28;19909;-90
2022/11/24 13:09:36;;;;;;;;;;;17.60;77.80;;;;;;5029921;28;19909;-90
2022/11/24 13:12:07;;;;;;;;;;;17.50;78.20;;;;;;5032235;28;19908;-90
2022/11/24 13:14:35;;;;;;;;;;;17.50;78.80;;;;;;5029697;28;19909;-90
2022/11/24 13:17:20;;;;;;;;;;;17.40;79.20;;;;;;5020097;28;19920;-90
2022/11/24 13:19:45;;;;;;;;;;;17.40;79.50;;;;;;5026091;28;20119;-90
2022/11/24 13:22:23;;;;;;;;;;;17.30;79.80;;;;;;5027662;28;20300;-89
2022/11/24 13:25:10;;;;;;;;;;;17.30;80.20;;;;;;5009957;28;19920;-90
2022/11/24 13:27:39;;;;;;;;;;;17.30;80.50;;;;;;5028488;28;20295;-89
2022/11/24 13:30:25;;;;;;;;;;;17.20;80.70;;;;;;5047216;28;19966;-90
2022/11/24 13:32:58;;;;;;;;;;;17.20;85.90;;;;;;5029800;28;19962;-90
2022/11/24 13:35:23;;;;;;;;;;;17.20;90.30;;;;;;5030815;28;19936;-90
2022/11/24 13:37:50;;;;;;;;;;;17.20;90.00;;;;;;5031073;28;20159;-90
2022/11/24 13:40:17;;;;;;;;;;;17.30;90.00;;;;;;5032423;28;20293;-90
2022/11/24 13:43:06;;;;;;;;;;;17.30;89.90;;;;;;5047028;28;19919;-90
2022/11/24 13:45:38;;;;;;;;;;;17.30;89.90;;;;;;5028132;28;20431;-90
2022/11/24 13:48:19;;;;;;;;;;;17.30;89.60;;;;;;5047314;28;19909;-90
2022/11/24 13:50:51;;;;;;;;;;;17.30;89.40;;;;;;5028025;28;20162;-90
2022/11/24 13:53:20;;;;;;;;;;;17.40;89.00;;;;;;5028706;28;19916;-90
2022/11/24 13:55:59;;;;;;;;;;;17.50;88.30;;;;;;5028810;28;20287;-90
2022/11/24 13:58:37;;;;;;;;;;;17.50;87.50;;;;;;5064338;28;20332;-90
2022/11/24 14:01:12;;;;;;;;;;;17.60;86.70;;;;;;5028727;28;20155;-90
2022/11/24 14:03:44;;;;;;;;;;;17.60;86.00;;;;;;5030054;28;20110;-90
2022/11/24 14:06:30;;;;;;;;;;;17.60;85.30;;;;;;5029014;28;19923;-90
2022/11/24 14:09:00;;;;;;;;;;;17.60;84.70;;;;;;5028449;28;19951;-90
2022/11/24 14:11:27;;;;;;;;;;;17.60;84.00;;;;;;5028373;28;20020;-90
2022/11/24 14:13:53;;;;;;;;;;;17.60;83.60;;;;;;5025216;28;19921;-90
2022/11/24 14:16:19;;;;;;;;;;;17.50;83.10;;;;;;5028676;28;19930;-90
2022/11/24 14:18:46;;;;;;;;;;;17.50;82.90;;;;;;5027655;28;20000;-90
2022/11/24 14:21:21;;;;;;;;;;;17.50;82.70;;;;;;5029971;28;19909;-90
2022/11/24 14:23:52;;;;;;;;;;;17.50;82.70;;;;;;5029478;28;19955;-90
2022/11/24 14:26:37;;;;;;;;;;;17.40;82.80;;;;;;5031800;28;19982;-90
2022/11/24 14:29:04;;;;;;;;;;;17.40;83.00;;;;;;5029814;28;20358;-90
2022/11/24 14:31:30;;;;;;;;;;;17.40;83.30;;;;;;5037873;28;20202;-90